createdAt,value
2023-01-11T00:00:18.000Z,3.9
2023-01-11T00:03:50.000Z,4.1
2023-01-11T00:07:23.000Z,3.6
2023-01-11T00:10:14.000Z,3.3
2023-01-11T00:13:47.000Z,3.4
2023-01-11T00:17:19.000Z,4
2023-01-11T00:20:52.000Z,3.8
2023-01-11T00:24:25.000Z,3.6
2023-01-11T00:27:57.000Z,3.9
2023-01-11T00:31:30.000Z,3.3
2023-01-11T00:35:03.000Z,3.7
2023-01-11T00:38:36.000Z,3.5
2023-01-11T00:42:08.000Z,3.5
2023-01-11T00:45:41.000Z,3.7
2023-01-11T00:48:32.000Z,4.4
2023-01-11T00:52:05.000Z,3.5
2023-01-11T00:55:37.000Z,3.6
2023-01-11T00:59:10.000Z,3.7
2023-01-11T01:02:43.000Z,4
2023-01-11T01:06:15.000Z,4.2
2023-01-11T01:09:48.000Z,4.8
2023-01-11T01:13:21.000Z,4
2023-01-11T01:16:53.000Z,3.8
2023-01-11T01:20:26.000Z,3.9
2023-01-11T01:23:59.000Z,4
2023-01-11T01:26:50.000Z,3.9
2023-01-11T01:30:22.000Z,3.2
2023-01-11T01:33:55.000Z,3.8
2023-01-11T01:37:28.000Z,3.5
2023-01-11T01:41:00.000Z,3.7
2023-01-11T01:44:33.000Z,3.7
2023-01-11T01:48:06.000Z,3.5
2023-01-11T01:51:38.000Z,4.5
2023-01-11T01:55:11.000Z,3.6
2023-01-11T01:58:44.000Z,3.7
2023-01-11T02:02:16.000Z,4.1
2023-01-11T02:05:07.000Z,3.6
2023-01-11T02:08:40.000Z,4.4
2023-01-11T02:12:13.000Z,4
2023-01-11T02:15:46.000Z,4.2
2023-01-11T02:19:18.000Z,3.8
2023-01-11T02:22:51.000Z,4.5
2023-01-11T02:26:24.000Z,4.6
2023-01-11T02:29:56.000Z,4.8
2023-01-11T02:33:29.000Z,4.4
2023-01-11T02:37:02.000Z,4
2023-01-11T02:40:34.000Z,4.6
2023-01-11T02:43:25.000Z,4.7
2023-01-11T02:46:58.000Z,4.8
2023-01-11T02:50:31.000Z,4.3
2023-01-11T02:54:03.000Z,4.1
2023-01-11T02:57:36.000Z,4.5
2023-01-11T03:01:09.000Z,4.9
2023-01-11T03:04:42.000Z,4.6
2023-01-11T03:08:14.000Z,5.1
2023-01-11T03:11:47.000Z,5
2023-01-11T03:15:20.000Z,4.6
2023-01-11T03:18:53.000Z,5.6
2023-01-11T03:21:44.000Z,6.3
2023-01-11T03:25:16.000Z,6.6
2023-01-11T03:28:49.000Z,6.6
2023-01-11T03:32:22.000Z,5.8
2023-01-11T03:35:54.000Z,5.9
2023-01-11T03:39:27.000Z,5.4
2023-01-11T03:43:00.000Z,5.2
2023-01-11T03:46:32.000Z,4.5
2023-01-11T03:50:05.000Z,3.9
2023-01-11T03:53:38.000Z,4.2
2023-01-11T03:57:11.000Z,4
2023-01-11T04:00:02.000Z,4.3
2023-01-11T04:03:35.000Z,3.9
2023-01-11T04:07:08.000Z,4
2023-01-11T04:10:40.000Z,3.2
2023-01-11T04:14:13.000Z,3.8
2023-01-11T04:17:46.000Z,4
2023-01-11T04:21:18.000Z,4.2
2023-01-11T04:24:51.000Z,3.5
2023-01-11T04:28:23.000Z,5
2023-01-11T04:31:56.000Z,4
2023-01-11T04:35:29.000Z,4.2
2023-01-11T04:38:20.000Z,4
2023-01-11T04:41:52.000Z,4.1
2023-01-11T04:45:25.000Z,4.4
2023-01-11T04:48:58.000Z,3.8
2023-01-11T04:52:30.000Z,4
2023-01-11T04:56:03.000Z,3.8
2023-01-11T04:59:36.000Z,4.3
2023-01-11T05:03:08.000Z,4.1
2023-01-11T05:06:41.000Z,4.1
2023-01-11T05:10:14.000Z,3.7
2023-01-11T05:13:47.000Z,3.9
2023-01-11T05:16:38.000Z,4
2023-01-11T05:20:11.000Z,4.5
2023-01-11T05:23:44.000Z,4.8
2023-01-11T05:27:17.000Z,4.4
2023-01-11T05:30:49.000Z,3.6
2023-01-11T05:34:22.000Z,4.7
2023-01-11T05:37:55.000Z,4.7
2023-01-11T05:41:27.000Z,5.8
2023-01-11T05:45:00.000Z,5.1
2023-01-11T05:48:33.000Z,5.6
2023-01-11T05:52:06.000Z,5.3
2023-01-11T05:54:57.000Z,5.3
2023-01-11T05:58:29.000Z,6.2
2023-01-11T06:02:02.000Z,5.5
2023-01-11T06:05:35.000Z,5.9
2023-01-11T06:09:07.000Z,5.4
2023-01-11T06:12:40.000Z,5.2
2023-01-11T06:16:13.000Z,5.6
2023-01-11T06:19:45.000Z,5.1
2023-01-11T06:23:18.000Z,4.3
2023-01-11T06:26:51.000Z,3.7
2023-01-11T06:30:23.000Z,4
2023-01-11T06:33:14.000Z,3.6
2023-01-11T06:36:47.000Z,3
2023-01-11T06:40:20.000Z,3.3
2023-01-11T06:43:52.000Z,3
2023-01-11T06:47:25.000Z,2.2
2023-01-11T06:50:58.000Z,2.4
2023-01-11T06:54:31.000Z,1.8
2023-01-11T06:58:03.000Z,1.9
2023-01-11T07:01:36.000Z,1.7
2023-01-11T07:05:09.000Z,1.9
2023-01-11T07:08:44.000Z,1.6
2023-01-11T07:11:36.000Z,1.4
2023-01-11T07:15:08.000Z,1.3
2023-01-11T07:18:41.000Z,1.6
2023-01-11T07:22:14.000Z,1.3
2023-01-11T07:25:46.000Z,1.2
2023-01-11T07:29:19.000Z,1
2023-01-11T07:32:57.000Z,1.1
2023-01-11T07:36:30.000Z,1
2023-01-11T07:40:03.000Z,0.9
2023-01-11T07:43:38.000Z,0.9
2023-01-11T07:47:10.000Z,1
2023-01-11T07:50:01.000Z,1
2023-01-11T07:53:34.000Z,0.8
2023-01-11T07:57:06.000Z,0.9
2023-01-11T08:00:39.000Z,0.8
2023-01-11T08:04:12.000Z,0.9
2023-01-11T08:07:44.000Z,0.8
2023-01-11T08:11:17.000Z,0.8
2023-01-11T08:14:50.000Z,0.6
2023-01-11T08:18:23.000Z,0.7
2023-01-11T08:21:55.000Z,0.9
2023-01-11T08:25:28.000Z,0.9
2023-01-11T08:28:19.000Z,1
2023-01-11T08:31:52.000Z,0.8
2023-01-11T08:35:25.000Z,0.8
2023-01-11T08:38:57.000Z,0.7
2023-01-11T08:42:30.000Z,0.7
2023-01-11T08:46:03.000Z,0.6
2023-01-11T08:49:35.000Z,0.7
2023-01-11T08:53:08.000Z,0.5
2023-01-11T08:56:41.000Z,0.5
2023-01-11T09:00:13.000Z,0.4
2023-01-11T09:03:46.000Z,0.4
2023-01-11T09:06:37.000Z,0.4
2023-01-11T09:10:10.000Z,0.4
2023-01-11T09:13:43.000Z,0.3
2023-01-11T09:17:16.000Z,0.4
2023-01-11T09:20:49.000Z,0.4
2023-01-11T09:24:21.000Z,0.5
2023-01-11T09:27:54.000Z,0.3
2023-01-11T09:31:27.000Z,0.4
2023-01-11T09:35:00.000Z,0.5
2023-01-11T09:38:32.000Z,0.5
2023-01-11T09:42:05.000Z,0.4
2023-01-11T09:44:56.000Z,0.4
2023-01-11T09:48:29.000Z,0.5
2023-01-11T09:52:02.000Z,0.5
2023-01-11T09:55:35.000Z,0.5
2023-01-11T09:59:07.000Z,0.3
2023-01-11T10:02:40.000Z,0.4
2023-01-11T10:06:13.000Z,0.4
2023-01-11T10:20:41.000Z,0.6
2023-01-11T10:24:13.000Z,0.5
2023-01-11T10:27:46.000Z,0.4
2023-01-11T10:30:37.000Z,0.3
2023-01-11T10:34:10.000Z,0.4
2023-01-11T10:37:42.000Z,0.6
2023-01-11T10:41:15.000Z,0.4
2023-01-11T10:44:48.000Z,0.3
2023-01-11T10:48:20.000Z,0.3
2023-01-11T10:51:53.000Z,0.4
2023-01-11T10:59:03.000Z,0.4
2023-01-11T11:02:36.000Z,0.7
2023-01-11T11:06:08.000Z,0.6
2023-01-11T11:09:00.000Z,0.7
2023-01-11T11:12:32.000Z,0.4
2023-01-11T11:16:05.000Z,0.4
2023-01-11T11:19:38.000Z,0.5
2023-01-11T11:23:11.000Z,0.5
2023-01-11T11:26:43.000Z,0.7
2023-01-11T11:30:16.000Z,0.3
2023-01-11T11:33:49.000Z,0.4
2023-01-11T11:37:22.000Z,0.4
2023-01-11T11:40:54.000Z,0.3
2023-01-11T11:44:27.000Z,0.7
2023-01-11T11:47:18.000Z,0.5
2023-01-11T11:50:51.000Z,1.4
2023-01-11T11:54:24.000Z,1.1
2023-01-11T11:57:56.000Z,0.5
2023-01-11T12:01:29.000Z,0.3
2023-01-11T12:05:02.000Z,0.4
2023-01-11T12:08:34.000Z,0.6
2023-01-11T12:12:07.000Z,0.3
2023-01-11T12:15:40.000Z,0.4
2023-01-11T12:19:12.000Z,0.3
2023-01-11T12:22:45.000Z,0.3
2023-01-11T12:25:36.000Z,0.3
2023-01-11T12:29:09.000Z,0.4
2023-01-11T12:32:41.000Z,0.3
2023-01-11T12:36:14.000Z,0.3
2023-01-11T12:39:46.000Z,0.3
2023-01-11T12:43:19.000Z,0.4
2023-01-11T12:46:52.000Z,0.3
2023-01-11T12:50:25.000Z,0.5
2023-01-11T12:53:57.000Z,0.3
2023-01-11T12:57:30.000Z,0.3
2023-01-11T13:01:03.000Z,0.4
2023-01-11T13:03:54.000Z,0.3
2023-01-11T13:07:26.000Z,0.4
2023-01-11T13:10:59.000Z,0.8
2023-01-11T13:14:31.000Z,0.5
2023-01-11T13:18:04.000Z,0.4
2023-01-11T13:21:37.000Z,0.7
2023-01-11T13:25:09.000Z,0.7
2023-01-11T13:28:42.000Z,0.6
2023-01-11T13:32:15.000Z,0.5
2023-01-11T13:35:48.000Z,8.8
2023-01-11T13:39:20.000Z,1.7
2023-01-11T13:42:11.000Z,0.7
2023-01-11T13:45:44.000Z,1.5
2023-01-11T13:49:17.000Z,2
2023-01-11T13:52:49.000Z,0.8
2023-01-11T13:56:22.000Z,1
2023-01-11T13:59:55.000Z,0.9
2023-01-11T14:03:28.000Z,1
2023-01-11T14:07:00.000Z,1.6
2023-01-11T14:10:35.000Z,1.4
2023-01-11T14:14:07.000Z,1.6
2023-01-11T14:17:40.000Z,1.8
2023-01-11T14:20:32.000Z,2.1
2023-01-11T14:24:04.000Z,2.3
2023-01-11T14:27:37.000Z,2.3
2023-01-11T14:31:10.000Z,2.4
2023-01-11T14:34:43.000Z,2.4
2023-01-11T14:38:15.000Z,2.6
2023-01-11T14:41:48.000Z,2.3
2023-01-11T14:45:21.000Z,2.6
2023-01-11T14:48:54.000Z,2.9
2023-01-11T14:52:26.000Z,2.4
2023-01-11T14:56:05.000Z,2.5
2023-01-11T14:58:56.000Z,2.7
2023-01-11T15:02:29.000Z,2.6
2023-01-11T15:06:02.000Z,2.4
2023-01-11T15:09:34.000Z,2.4
2023-01-11T15:13:07.000Z,2.8
2023-01-11T15:16:40.000Z,2.4
2023-01-11T15:20:12.000Z,2.3
2023-01-11T15:23:45.000Z,2.5
2023-01-11T15:27:18.000Z,2.5
2023-01-11T15:30:50.000Z,2.3
2023-01-11T15:34:23.000Z,2.4
2023-01-11T15:37:14.000Z,2.9
2023-01-11T15:40:47.000Z,2.6
2023-01-11T15:44:20.000Z,2.3
2023-01-11T15:47:52.000Z,2.7
2023-01-11T15:51:25.000Z,2.5
2023-01-11T15:54:58.000Z,3.1
2023-01-11T15:58:30.000Z,2.7
2023-01-11T16:02:03.000Z,3.4
2023-01-11T16:05:36.000Z,3.1
2023-01-11T16:09:09.000Z,3.6
2023-01-11T16:12:41.000Z,2.9
2023-01-11T16:15:33.000Z,2.8
2023-01-11T16:19:05.000Z,4.2
2023-01-11T16:22:38.000Z,3.6
2023-01-11T16:26:11.000Z,3
2023-01-11T16:29:43.000Z,4.7
2023-01-11T16:33:16.000Z,5.5
2023-01-11T16:36:49.000Z,3.6
2023-01-11T16:40:22.000Z,3.8
2023-01-11T16:43:54.000Z,3.4
2023-01-11T16:47:27.000Z,3.2
2023-01-11T16:51:00.000Z,3.6
2023-01-11T16:53:51.000Z,3.6
2023-01-11T16:57:24.000Z,4.2
2023-01-11T17:00:57.000Z,4
2023-01-11T17:04:30.000Z,3.9
2023-01-11T17:08:02.000Z,3.1
2023-01-11T17:11:35.000Z,3.4
2023-01-11T17:15:08.000Z,3.4
2023-01-11T17:18:41.000Z,2.8
2023-01-11T17:22:13.000Z,3.6
2023-01-11T17:25:46.000Z,3.4
2023-01-11T17:29:19.000Z,2.7
2023-01-11T17:32:10.000Z,4.1
2023-01-11T17:35:43.000Z,9.9
2023-01-11T17:39:15.000Z,7
2023-01-11T17:42:48.000Z,5
2023-01-11T17:46:21.000Z,3.5
2023-01-11T17:49:53.000Z,3.6
2023-01-11T17:53:26.000Z,3.2
2023-01-11T17:56:59.000Z,2.9
2023-01-11T18:00:31.000Z,2.8
2023-01-11T18:04:04.000Z,3.2
2023-01-11T18:07:37.000Z,2.8
2023-01-11T18:10:28.000Z,3.1
2023-01-11T18:14:01.000Z,3.2
2023-01-11T18:17:33.000Z,3
2023-01-11T18:21:06.000Z,2.4
2023-01-11T18:24:39.000Z,2.5
2023-01-11T18:28:11.000Z,2.9
2023-01-11T18:31:44.000Z,3.4
2023-01-11T18:35:16.000Z,3.3
2023-01-11T18:38:49.000Z,3.1
2023-01-11T18:42:22.000Z,2.7
2023-01-11T18:45:55.000Z,2.9
2023-01-11T18:48:46.000Z,2.2
2023-01-11T18:52:18.000Z,2.7
2023-01-11T18:55:51.000Z,2.6
2023-01-11T18:59:24.000Z,2.6
2023-01-11T19:02:56.000Z,2.8
2023-01-11T19:06:29.000Z,2.3
2023-01-11T19:10:02.000Z,2.6
2023-01-11T19:13:34.000Z,2.2
2023-01-11T19:17:08.000Z,2.7
2023-01-11T19:20:41.000Z,2.9
2023-01-11T19:24:14.000Z,3
2023-01-11T19:27:05.000Z,2.6
2023-01-11T19:30:37.000Z,2.4
2023-01-11T19:34:10.000Z,2.5
2023-01-11T19:37:43.000Z,2.3
2023-01-11T19:41:15.000Z,3.4
2023-01-11T19:44:48.000Z,3.8
2023-01-11T19:48:30.000Z,2.8
2023-01-11T19:52:03.000Z,2.5
2023-01-11T19:55:35.000Z,2.7
2023-01-11T19:59:08.000Z,2.8
2023-01-11T20:02:41.000Z,4.2
2023-01-11T20:05:32.000Z,3.8
2023-01-11T20:09:05.000Z,6.1
2023-01-11T20:12:38.000Z,3.5
2023-01-11T20:16:10.000Z,3.5
2023-01-11T20:19:43.000Z,3.1
2023-01-11T20:23:16.000Z,3.7
2023-01-11T20:26:48.000Z,3.9
2023-01-11T20:30:21.000Z,3.5
2023-01-11T20:33:54.000Z,3.8
2023-01-11T20:37:27.000Z,2.9
2023-01-11T20:40:59.000Z,3.7
2023-01-11T20:43:50.000Z,3.8
2023-01-11T20:47:23.000Z,3.9
2023-01-11T20:50:55.000Z,3.4
2023-01-11T20:54:28.000Z,3.9
2023-01-11T20:58:01.000Z,4.1
2023-01-11T21:01:33.000Z,4.3
2023-01-11T21:05:07.000Z,3.4
2023-01-11T21:08:39.000Z,3.5
2023-01-11T21:12:12.000Z,3.6
2023-01-11T21:15:44.000Z,3.9
2023-01-11T21:19:17.000Z,3.5
2023-01-11T21:22:09.000Z,4
2023-01-11T21:25:42.000Z,3.4
2023-01-11T21:29:15.000Z,3.5
2023-01-11T21:32:47.000Z,3.4
2023-01-11T21:36:20.000Z,3.4
2023-01-11T21:39:52.000Z,3.6
2023-01-11T21:43:25.000Z,3.8
2023-01-11T21:46:58.000Z,4.1
2023-01-11T21:50:30.000Z,3.9
2023-01-11T21:54:03.000Z,3.8
2023-01-11T21:57:36.000Z,3.8
2023-01-11T22:00:27.000Z,5
2023-01-11T22:04:00.000Z,4
2023-01-11T22:07:33.000Z,4.4
2023-01-11T22:11:05.000Z,4.6
2023-01-11T22:14:38.000Z,4.5
2023-01-11T22:18:11.000Z,4.4
2023-01-11T22:21:43.000Z,5
2023-01-11T22:25:16.000Z,4.8
2023-01-11T22:28:49.000Z,4.5
2023-01-11T22:32:22.000Z,4.4
2023-01-11T22:35:54.000Z,4
2023-01-11T22:38:45.000Z,3.7
2023-01-11T22:42:18.000Z,4.1
2023-01-11T22:45:51.000Z,3.8
2023-01-11T22:49:23.000Z,4.1
2023-01-11T22:52:56.000Z,4
2023-01-11T22:56:29.000Z,3.9
2023-01-11T23:00:01.000Z,3.9
2023-01-11T23:03:34.000Z,3.5
2023-01-11T23:07:06.000Z,4
2023-01-11T23:10:39.000Z,3.6
2023-01-11T23:14:12.000Z,4
2023-01-11T23:17:03.000Z,3.4
2023-01-11T23:20:36.000Z,3.8
2023-01-11T23:24:08.000Z,3.7
2023-01-11T23:27:41.000Z,3.1
2023-01-11T23:31:14.000Z,3.6
2023-01-11T23:34:46.000Z,3.5
2023-01-11T23:38:19.000Z,3.7
2023-01-11T23:41:52.000Z,3.6
2023-01-11T23:45:24.000Z,3.4
2023-01-11T23:48:57.000Z,4
2023-01-11T23:52:30.000Z,3.6
2023-01-11T23:55:21.000Z,3.8
2023-01-11T23:58:54.000Z,3.3
